Time;durP1;ratioP1;P1;durP2;ratioP2;P2;SDS_P1;SDS_P2;PMS_P1;PMS_P2;Temp;Humidity;BMP_temperature;BMP_pressure;BME280_temperature;BME280_humidity;BME280_pressure;Samples;Min_cycle;Max_cycle;Signal;HPM_P1;HPM_P2
2023/06/19 00:01:21;;;;;;;13.15;7.93;;;20.20;99.90;;;;;;4995422;28;20041;-73
2023/06/19 00:03:47;;;;;;;14.20;8.05;;;20.10;99.90;;;;;;5012785;28;20049;-73
2023/06/19 00:06:13;;;;;;;12.77;7.82;;;20.00;99.90;;;;;;5012436;28;20034;-73
2023/06/19 00:08:42;;;;;;;12.43;7.93;;;20.00;99.90;;;;;;5012623;28;20037;-73
2023/06/19 00:11:08;;;;;;;17.80;8.00;;;20.00;99.90;;;;;;5012102;28;20037;-73
2023/06/19 00:13:34;;;;;;;14.35;7.47;;;20.00;99.90;;;;;;5012615;28;20048;-73
2023/06/19 00:16:01;;;;;;;13.25;7.80;;;20.00;99.90;;;;;;5011810;28;20097;-75
2023/06/19 00:18:27;;;;;;;12.88;7.43;;;20.00;99.90;;;;;;5014079;28;20165;-73
2023/06/19 00:20:55;;;;;;;9.70;7.20;;;20.00;99.90;;;;;;5012242;28;20034;-73
2023/06/19 00:23:22;;;;;;;12.05;7.57;;;20.10;99.90;;;;;;5012598;28;20049;-73
2023/06/19 00:25:48;;;;;;;11.93;7.22;;;20.00;99.90;;;;;;5011641;28;20026;-73
2023/06/19 00:28:19;;;;;;;10.65;7.65;;;20.00;99.90;;;;;;5013446;28;20041;-73
2023/06/19 00:30:45;;;;;;;12.27;7.47;;;19.90;99.90;;;;;;5012747;28;20038;-73
2023/06/19 00:33:11;;;;;;;13.98;8.20;;;19.90;99.90;;;;;;5012979;28;20034;-73
2023/06/19 00:35:37;;;;;;;15.27;8.20;;;19.90;99.90;;;;;;5007085;28;20033;-73
2023/06/19 00:38:05;;;;;;;15.55;8.18;;;19.90;99.90;;;;;;4973892;28;20035;-73
2023/06/19 00:40:32;;;;;;;12.98;8.32;;;19.90;99.90;;;;;;4979960;28;20375;-73
2023/06/19 00:42:58;;;;;;;14.25;8.65;;;19.90;99.90;;;;;;5012098;28;20037;-73
2023/06/19 00:45:25;;;;;;;12.77;7.95;;;19.80;99.90;;;;;;5012384;28;20041;-73
2023/06/19 00:47:54;;;;;;;15.65;8.07;;;19.90;99.90;;;;;;5005662;28;20041;-73
2023/06/19 00:50:24;;;;;;;14.18;9.15;;;19.90;99.90;;;;;;4993873;28;20034;-73
2023/06/19 00:52:50;;;;;;;13.40;8.80;;;19.90;99.90;;;;;;5011488;28;20041;-73
2023/06/19 00:55:16;;;;;;;12.82;8.90;;;19.90;99.90;;;;;;5012165;28;20042;-73
2023/06/19 00:57:43;;;;;;;15.65;8.57;;;19.80;99.90;;;;;;5013212;28;20371;-73
2023/06/19 01:00:12;;;;;;;10.85;8.93;;;19.70;99.90;;;;;;5012249;28;20037;-72
2023/06/19 01:02:38;;;;;;;14.02;8.93;;;19.80;99.90;;;;;;4972820;28;20039;-73
2023/06/19 01:05:05;;;;;;;13.02;8.82;;;19.70;99.90;;;;;;4973900;28;20385;-73
2023/06/19 01:07:46;;;;;;;13.73;8.77;;;19.60;99.90;;;;;;5027352;28;20045;-72
2023/06/19 01:10:15;;;;;;;14.13;8.88;;;19.60;99.90;;;;;;5012172;28;20367;-73
2023/06/19 01:12:59;;;;;;;15.65;8.88;;;19.60;99.90;;;;;;5011577;28;20042;-72
2023/06/19 01:15:25;;;;;;;16.40;8.85;;;19.50;99.90;;;;;;4994337;28;20037;-73
2023/06/19 01:17:51;;;;;;;13.23;8.70;;;19.50;99.90;;;;;;5012897;28;20034;-73
2023/06/19 01:20:17;;;;;;;12.13;8.90;;;19.50;99.90;;;;;;5011212;28;20029;-73
2023/06/19 01:22:43;;;;;;;16.88;9.30;;;19.50;99.90;;;;;;5011205;28;20034;-72
2023/06/19 01:25:13;;;;;;;13.70;9.15;;;19.50;99.90;;;;;;4994864;28;20064;-73
2023/06/19 01:27:39;;;;;;;14.75;9.93;;;19.50;99.90;;;;;;5011432;28;20026;-73
2023/06/19 01:30:06;;;;;;;15.65;9.52;;;19.40;99.90;;;;;;5011120;28;20030;-72
2023/06/19 01:32:56;;;;;;;15.43;9.27;;;19.40;99.90;;;;;;5011040;28;20029;-72
2023/06/19 01:35:27;;;;;;;16.48;9.88;;;19.40;99.90;;;;;;5009962;28;20408;-72
2023/06/19 01:37:53;;;;;;;15.57;9.95;;;19.40;99.90;;;;;;4973180;28;20026;-72
2023/06/19 01:40:21;;;;;;;15.32;10.77;;;19.30;99.90;;;;;;4975037;28;20107;-73
2023/06/19 01:42:47;;;;;;;13.98;9.63;;;19.40;99.90;;;;;;5011257;28;20038;-73
2023/06/19 01:45:13;;;;;;;16.33;10.20;;;19.30;99.90;;;;;;5013850;28;20026;-72
2023/06/19 01:47:39;;;;;;;13.70;10.05;;;19.30;99.90;;;;;;5025828;28;20030;-73
2023/06/19 01:50:06;;;;;;;18.13;10.43;;;19.30;99.90;;;;;;4995598;28;20046;-73
2023/06/19 01:52:32;;;;;;;14.88;10.23;;;19.30;99.90;;;;;;5014509;28;20037;-73
2023/06/19 01:54:58;;;;;;;16.83;10.55;;;19.30;99.90;;;;;;5015274;28;20038;-73
2023/06/19 01:57:24;;;;;;;17.52;10.40;;;19.30;99.90;;;;;;5014894;28;20037;-73
2023/06/19 01:59:50;;;;;;;18.42;9.95;;;19.30;99.90;;;;;;5031084;28;20034;-73
2023/06/19 02:02:16;;;;;;;17.08;10.32;;;19.30;99.90;;;;;;5000359;28;20030;-73
2023/06/19 02:04:42;;;;;;;15.10;9.93;;;19.40;99.90;;;;;;4987010;28;20045;-73
2023/06/19 02:07:08;;;;;;;16.77;10.07;;;19.30;99.90;;;;;;4997539;28;20030;-73
2023/06/19 02:09:35;;;;;;;20.52;10.85;;;19.30;99.90;;;;;;5010170;28;20037;-72
2023/06/19 02:12:01;;;;;;;17.73;10.55;;;19.20;99.90;;;;;;5010372;28;20363;-72
2023/06/19 02:14:27;;;;;;;13.70;9.48;;;19.20;99.90;;;;;;5002716;28;20700;-73
2023/06/19 02:16:53;;;;;;;16.77;10.38;;;19.30;99.90;;;;;;4993993;28;20045;-73
2023/06/19 02:19:20;;;;;;;14.98;9.60;;;19.20;99.90;;;;;;4993460;28;20399;-73
2023/06/19 02:21:46;;;;;;;16.65;10.27;;;19.10;99.90;;;;;;4994236;28;20038;-73
2023/06/19 02:24:12;;;;;;;14.05;9.88;;;18.90;99.90;;;;;;5009873;28;20510;-73
2023/06/19 02:26:38;;;;;;;16.27;9.88;;;18.90;99.90;;;;;;4994359;28;20073;-73
2023/06/19 02:29:04;;;;;;;15.10;9.63;;;18.90;99.90;;;;;;4994641;28;20383;-73
2023/06/19 02:31:31;;;;;;;14.95;9.35;;;19.00;99.90;;;;;;5005649;28;20042;-73
2023/06/19 02:33:57;;;;;;;17.15;9.95;;;19.10;99.90;;;;;;5013997;28;20033;-73
2023/06/19 02:36:23;;;;;;;20.50;10.00;;;19.20;99.90;;;;;;5003006;28;20094;-73
2023/06/19 02:38:49;;;;;;;12.65;9.70;;;19.10;99.90;;;;;;4995876;28;20031;-72
2023/06/19 02:41:15;;;;;;;13.82;8.73;;;19.10;99.90;;;;;;5003678;28;20042;-72
2023/06/19 02:43:42;;;;;;;11.73;9.63;;;18.90;99.90;;;;;;5014463;28;20026;-73
2023/06/19 02:46:08;;;;;;;15.25;9.73;;;18.90;99.90;;;;;;5013464;28;20034;-73
2023/06/19 02:48:34;;;;;;;13.23;9.02;;;19.00;99.90;;;;;;5000732;28;20404;-75
2023/06/19 02:51:01;;;;;;;15.10;9.02;;;19.00;99.90;;;;;;5002468;28;20046;-73
2023/06/19 02:53:27;;;;;;;13.70;9.02;;;19.10;99.90;;;;;;5015022;28;20034;-73
2023/06/19 02:55:53;;;;;;;12.52;10.00;;;19.10;99.90;;;;;;5014537;28;20042;-72
2023/06/19 02:58:19;;;;;;;15.52;9.27;;;19.10;99.90;;;;;;5015268;28;20029;-73
2023/06/19 03:00:45;;;;;;;14.93;9.63;;;19.10;99.90;;;;;;5013314;28;20038;-72
2023/06/19 03:03:12;;;;;;;16.02;9.40;;;19.10;99.90;;;;;;5014055;28;20033;-73
2023/06/19 03:05:38;;;;;;;16.92;10.13;;;19.10;99.90;;;;;;5014384;28;20029;-73
2023/06/19 03:08:04;;;;;;;15.07;9.85;;;19.00;99.90;;;;;;5030246;28;20030;-73
2023/06/19 03:10:31;;;;;;;14.23;9.95;;;19.00;99.90;;;;;;5013646;28;20081;-73
2023/06/19 03:12:58;;;;;;;14.55;9.48;;;19.00;99.90;;;;;;5013802;28;20030;-72
2023/06/19 03:15:25;;;;;;;16.67;9.75;;;19.00;99.90;;;;;;5014152;28;20045;-73
2023/06/19 03:17:52;;;;;;;13.85;9.75;;;19.00;99.90;;;;;;5014613;28;20034;-73
2023/06/19 03:20:19;;;;;;;18.15;10.32;;;19.00;99.90;;;;;;5013071;28;20414;-73
2023/06/19 03:22:45;;;;;;;12.75;9.18;;;19.00;99.90;;;;;;5030033;28;20026;-73
2023/06/19 03:25:11;;;;;;;13.32;9.98;;;19.00;99.90;;;;;;5014439;28;20030;-73
2023/06/19 03:27:37;;;;;;;12.95;9.57;;;19.00;99.90;;;;;;5013463;28;20053;-73
2023/06/19 03:30:08;;;;;;;16.05;9.57;;;19.00;99.90;;;;;;5014205;28;20383;-73
2023/06/19 03:32:34;;;;;;;16.85;10.32;;;19.00;99.90;;;;;;5014631;28;20029;-73
2023/06/19 03:35:01;;;;;;;14.30;10.38;;;19.00;99.90;;;;;;5013013;28;20050;-73
2023/06/19 03:37:27;;;;;;;13.93;9.57;;;19.00;99.90;;;;;;4995565;28;20038;-72
2023/06/19 03:39:53;;;;;;;14.68;10.52;;;18.90;99.90;;;;;;5009778;28;20034;-72
2023/06/19 03:42:19;;;;;;;15.30;10.95;;;18.60;99.90;;;;;;5012852;28;20034;-73
2023/06/19 03:44:45;;;;;;;16.70;11.15;;;18.40;99.90;;;;;;5029962;28;20042;-73
2023/06/19 03:47:11;;;;;;;16.17;11.27;;;18.40;99.90;;;;;;5011543;28;20510;-73
2023/06/19 03:49:38;;;;;;;14.50;11.18;;;18.30;99.90;;;;;;4994345;28;20054;-73
2023/06/19 03:52:04;;;;;;;17.15;11.93;;;18.30;99.90;;;;;;5005976;28;20463;-73
2023/06/19 03:54:30;;;;;;;24.35;13.35;;;18.40;99.90;;;;;;5014061;28;20041;-73
2023/06/19 03:56:56;;;;;;;24.02;12.90;;;18.40;99.90;;;;;;5012500;28;20037;-73
2023/06/19 03:59:22;;;;;;;20.90;12.63;;;18.30;99.90;;;;;;5014191;28;20459;-72
2023/06/19 04:01:48;;;;;;;21.55;13.02;;;18.20;99.90;;;;;;5008752;28;20396;-73
2023/06/19 04:04:15;;;;;;;21.73;12.70;;;18.10;99.90;;;;;;4992685;28;20041;-73
2023/06/19 04:06:41;;;;;;;24.92;13.38;;;18.20;99.90;;;;;;5008399;28;20396;-72
2023/06/19 04:09:07;;;;;;;21.90;13.02;;;18.30;99.90;;;;;;4994431;28;20030;-73
2023/06/19 04:11:33;;;;;;;22.42;13.75;;;18.50;99.90;;;;;;4994052;28;20034;-72
2023/06/19 04:13:59;;;;;;;21.52;13.95;;;18.60;99.90;;;;;;5009305;28;20099;-72
2023/06/19 04:16:25;;;;;;;19.17;12.75;;;18.50;99.90;;;;;;5019892;28;20053;-73
2023/06/19 04:18:51;;;;;;;20.98;13.25;;;18.30;99.90;;;;;;5013457;28;20029;-72
2023/06/19 04:21:17;;;;;;;18.83;14.45;;;18.30;99.90;;;;;;5013377;28;20034;-73
2023/06/19 04:23:43;;;;;;;20.52;13.65;;;18.30;99.90;;;;;;5013709;28;20033;-73
2023/06/19 04:26:09;;;;;;;21.23;14.60;;;18.40;99.90;;;;;;5013261;28;20029;-73
2023/06/19 04:28:35;;;;;;;22.38;13.55;;;18.40;99.90;;;;;;5013658;28;20463;-73
2023/06/19 04:31:01;;;;;;;20.38;14.82;;;18.40;99.90;;;;;;5012894;28;20041;-73
2023/06/19 04:33:28;;;;;;;21.65;14.68;;;18.40;99.90;;;;;;5013248;28;20471;-73
2023/06/19 04:35:55;;;;;;;24.90;15.18;;;18.40;99.90;;;;;;5018499;28;20039;-72
2023/06/19 04:38:23;;;;;;;27.40;15.35;;;18.40;99.90;;;;;;4973282;28;20037;-73
2023/06/19 04:40:51;;;;;;;25.35;15.15;;;18.30;99.90;;;;;;4985503;28;20046;-73
2023/06/19 04:43:17;;;;;;;23.85;15.60;;;18.40;99.90;;;;;;5013337;28;20474;-73
2023/06/19 04:45:43;;;;;;;23.90;15.13;;;18.40;99.90;;;;;;5012335;28;20486;-72
2023/06/19 04:48:09;;;;;;;21.67;14.32;;;18.50;99.90;;;;;;5003128;28;20054;-73
2023/06/19 04:50:35;;;;;;;22.83;14.70;;;18.40;99.90;;;;;;4996759;28;20041;-73
2023/06/19 04:53:01;;;;;;;21.38;14.15;;;18.40;99.90;;;;;;5013123;28;20030;-73
2023/06/19 04:55:27;;;;;;;24.30;15.18;;;18.40;99.90;;;;;;5012707;28;20422;-73
2023/06/19 04:57:55;;;;;;;28.23;16.05;;;18.50;99.90;;;;;;5013158;28;20054;-73
2023/06/19 05:00:21;;;;;;;26.17;15.60;;;18.40;99.90;;;;;;5011903;28;20418;-73
2023/06/19 05:02:47;;;;;;;25.80;15.98;;;18.30;99.90;;;;;;5012898;28;20026;-75
2023/06/19 05:05:14;;;;;;;23.30;15.55;;;18.30;99.90;;;;;;5012542;28;20470;-75
2023/06/19 05:07:40;;;;;;;22.60;15.40;;;18.20;99.90;;;;;;5028286;28;20026;-75
2023/06/19 05:10:07;;;;;;;27.20;16.02;;;18.20;99.90;;;;;;5028284;28;20414;-76
2023/06/19 05:12:34;;;;;;;23.60;15.27;;;18.40;99.90;;;;;;5012616;28;20034;-71
2023/06/19 05:15:00;;;;;;;24.40;15.65;;;18.40;99.90;;;;;;5027648;28;20045;-73
2023/06/19 05:17:26;;;;;;;24.40;15.40;;;18.50;99.90;;;;;;5026930;28;20034;-73
2023/06/19 05:19:52;;;;;;;21.58;14.80;;;18.60;99.90;;;;;;5027968;28;20055;-71
2023/06/19 05:22:21;;;;;;;20.60;14.30;;;18.50;99.90;;;;;;5012413;28;20022;-73
2023/06/19 05:24:47;;;;;;;23.08;15.25;;;18.50;99.90;;;;;;5027688;28;20026;-73
2023/06/19 05:27:13;;;;;;;23.33;15.75;;;18.50;99.90;;;;;;5027704;28;20037;-73
2023/06/19 05:29:39;;;;;;;26.58;17.42;;;18.50;99.90;;;;;;5012375;28;20030;-73
2023/06/19 05:32:06;;;;;;;28.02;18.40;;;18.60;99.90;;;;;;5011790;28;20030;-73
2023/06/19 05:34:32;;;;;;;23.52;17.77;;;18.50;99.90;;;;;;5012544;28;20045;-73
2023/06/19 05:37:00;;;;;;;30.38;17.15;;;18.50;99.90;;;;;;4998758;28;20041;-73
2023/06/19 05:39:26;;;;;;;24.08;15.77;;;18.50;99.90;;;;;;4992837;28;20029;-73
2023/06/19 05:41:52;;;;;;;26.58;16.08;;;18.60;99.90;;;;;;5006421;28;20038;-73
2023/06/19 05:44:18;;;;;;;21.45;15.35;;;18.60;99.90;;;;;;5027281;28;20030;-73
2023/06/19 05:46:45;;;;;;;22.67;15.30;;;18.60;99.90;;;;;;5011666;28;20038;-73
2023/06/19 05:49:11;;;;;;;22.58;15.88;;;18.80;99.90;;;;;;5009207;28;20403;-73
2023/06/19 05:51:37;;;;;;;25.67;15.32;;;19.00;99.90;;;;;;5003074;28;20495;-73
2023/06/19 05:54:03;;;;;;;18.65;14.70;;;19.10;99.90;;;;;;5012345;28;20025;-73
2023/06/19 05:56:33;;;;;;;20.27;13.90;;;19.30;99.90;;;;;;5011967;28;20479;-73
2023/06/19 05:59:02;;;;;;;24.92;14.48;;;19.40;99.90;;;;;;5026838;28;20391;-73
2023/06/19 06:01:29;;;;;;;22.20;14.32;;;19.60;99.90;;;;;;5011606;28;20034;-73
2023/06/19 06:03:56;;;;;;;20.98;13.40;;;19.90;99.90;;;;;;5027291;28;20022;-72
2023/06/19 06:06:25;;;;;;;19.27;12.68;;;20.00;99.90;;;;;;5027152;28;20034;-73
2023/06/19 06:08:51;;;;;;;18.52;13.18;;;20.00;99.90;;;;;;5027250;28;20041;-73
2023/06/19 06:11:18;;;;;;;19.73;13.65;;;20.00;99.90;;;;;;5011879;28;20387;-72
2023/06/19 06:13:44;;;;;;;19.55;12.98;;;19.90;99.90;;;;;;5012022;28;20038;-73
2023/06/19 06:16:10;;;;;;;22.05;13.88;;;19.90;99.90;;;;;;5026504;28;20038;-73
2023/06/19 06:18:36;;;;;;;19.27;11.93;;;20.00;99.90;;;;;;5012231;28;20029;-73
2023/06/19 06:21:02;;;;;;;23.35;13.15;;;20.20;99.90;;;;;;5011975;28;20041;-73
2023/06/19 06:23:28;;;;;;;22.33;12.88;;;20.30;99.90;;;;;;5012140;28;20467;-73
2023/06/19 06:26:01;;;;;;;19.20;12.50;;;20.10;99.90;;;;;;5027028;28;20041;-73
2023/06/19 06:28:27;;;;;;;21.98;13.30;;;20.10;99.90;;;;;;5011769;28;20061;-73
2023/06/19 06:30:53;;;;;;;18.52;13.30;;;20.20;99.90;;;;;;5013791;28;20045;-73
2023/06/19 06:33:19;;;;;;;22.92;13.63;;;20.20;99.90;;;;;;5015767;28;20026;-73
2023/06/19 06:35:45;;;;;;;18.67;14.45;;;20.30;99.90;;;;;;5026931;28;20038;-74
2023/06/19 06:38:12;;;;;;;20.08;12.60;;;20.20;99.90;;;;;;4996151;28;20026;-73
2023/06/19 06:40:38;;;;;;;21.50;14.02;;;20.40;99.90;;;;;;5014065;28;20490;-73
2023/06/19 06:43:04;;;;;;;26.65;14.20;;;20.40;99.90;;;;;;5015486;28;20057;-74
2023/06/19 06:45:30;;;;;;;18.55;13.30;;;20.50;99.90;;;;;;5010240;28;20759;-73
2023/06/19 06:47:56;;;;;;;16.90;13.13;;;20.70;99.90;;;;;;4995571;28;20038;-74
2023/06/19 06:50:22;;;;;;;17.35;13.68;;;20.70;99.90;;;;;;4995667;28;20038;-74
2023/06/19 06:52:48;;;;;;;21.15;13.20;;;20.60;99.90;;;;;;5016159;28;20034;-74
2023/06/19 06:55:14;;;;;;;19.65;13.00;;;20.60;99.90;;;;;;5014253;28;20034;-73
2023/06/19 06:57:40;;;;;;;20.50;12.52;;;20.80;99.90;;;;;;4995390;28;20486;-73
2023/06/19 07:00:11;;;;;;;19.23;12.43;;;20.90;99.90;;;;;;4994280;28;20049;-73
2023/06/19 07:02:38;;;;;;;23.17;12.95;;;21.20;99.90;;;;;;5015218;28;20022;-73
2023/06/19 07:05:04;;;;;;;15.85;12.45;;;21.50;99.90;;;;;;5015096;28;20467;-73
2023/06/19 07:07:30;;;;;;;17.98;13.60;;;21.70;99.90;;;;;;5030147;28;20505;-74
2023/06/19 07:09:56;;;;;;;20.92;13.02;;;21.60;99.90;;;;;;5015014;28;20041;-73
2023/06/19 07:12:22;;;;;;;19.15;12.95;;;21.50;99.90;;;;;;5014341;28;20038;-73
2023/06/19 07:14:48;;;;;;;18.27;12.52;;;21.50;99.90;;;;;;5013458;28;20057;-73
2023/06/19 07:17:14;;;;;;;17.80;12.48;;;21.50;99.90;;;;;;5014351;28;20038;-73
2023/06/19 07:19:41;;;;;;;20.13;12.73;;;21.50;99.90;;;;;;5014959;28;20041;-73
2023/06/19 07:22:07;;;;;;;16.83;12.25;;;21.60;99.90;;;;;;5029789;28;20053;-74
2023/06/19 07:24:33;;;;;;;15.40;11.85;;;21.80;99.90;;;;;;5013453;28;20042;-73
2023/06/19 07:26:59;;;;;;;17.27;12.80;;;21.80;99.90;;;;;;5013035;28;20034;-74
2023/06/19 07:29:26;;;;;;;18.33;12.65;;;21.70;99.90;;;;;;5014646;28;20030;-74
2023/06/19 07:31:52;;;;;;;17.17;12.90;;;21.70;99.90;;;;;;5013946;28;20042;-74
2023/06/19 07:34:19;;;;;;;21.42;12.70;;;21.60;99.90;;;;;;5029833;28;20026;-74
2023/06/19 07:36:45;;;;;;;18.50;12.25;;;21.40;99.90;;;;;;5002537;28;20034;-74
2023/06/19 07:39:11;;;;;;;17.67;11.82;;;21.20;99.90;;;;;;4994961;28;20026;-74
2023/06/19 07:41:37;;;;;;;19.73;12.57;;;21.30;99.90;;;;;;5004741;28;20039;-73
2023/06/19 07:44:03;;;;;;;19.42;12.45;;;21.20;99.90;;;;;;5029555;28;20026;-74
2023/06/19 07:46:29;;;;;;;19.10;12.80;;;21.00;99.90;;;;;;5013821;28;20034;-73
2023/06/19 07:48:55;;;;;;;17.40;11.82;;;21.00;99.90;;;;;;4997833;28;20050;-74
2023/06/19 07:51:21;;;;;;;19.85;12.43;;;21.10;99.90;;;;;;5004079;28;20030;-73
2023/06/19 07:53:47;;;;;;;14.18;11.57;;;21.30;99.90;;;;;;5029505;28;20383;-74
2023/06/19 07:56:13;;;;;;;18.08;11.75;;;21.50;99.90;;;;;;5013449;28;20053;-73
2023/06/19 07:58:40;;;;;;;20.23;11.90;;;21.60;99.90;;;;;;5014136;28;20030;-73
2023/06/19 08:01:06;;;;;;;19.60;12.43;;;21.70;99.90;;;;;;5013265;28;20049;-74
2023/06/19 08:03:32;;;;;;;19.35;13.07;;;21.20;99.90;;;;;;5014114;28;20029;-74
2023/06/19 08:05:58;;;;;;;22.42;12.60;;;21.10;99.90;;;;;;5013538;28;20044;-74
2023/06/19 08:08:24;;;;;;;21.10;13.85;;;21.20;99.90;;;;;;5013951;28;20026;-73
2023/06/19 08:10:50;;;;;;;17.55;12.95;;;21.30;99.90;;;;;;5013303;28;20033;-73
2023/06/19 08:13:16;;;;;;;17.23;13.10;;;21.50;99.90;;;;;;5013726;28;20037;-73
2023/06/19 08:15:44;;;;;;;16.20;12.70;;;21.40;99.90;;;;;;5013286;28;20042;-74
2023/06/19 08:18:10;;;;;;;20.60;12.77;;;21.20;99.90;;;;;;5013671;28;20055;-74
2023/06/19 08:20:36;;;;;;;19.13;13.40;;;21.20;99.90;;;;;;5013481;28;20386;-73
2023/06/19 08:23:02;;;;;;;18.65;12.20;;;21.20;99.90;;;;;;5013823;28;20026;-73
2023/06/19 08:25:28;;;;;;;18.92;12.85;;;21.30;99.90;;;;;;5012967;28;20395;-73
2023/06/19 08:27:54;;;;;;;20.02;13.70;;;21.60;99.90;;;;;;5028817;28;20030;-73
2023/06/19 08:30:20;;;;;;;21.95;13.80;;;21.60;99.90;;;;;;5028091;28;20521;-74
2023/06/19 08:32:48;;;;;;;17.00;13.02;;;21.60;99.90;;;;;;5028715;28;20022;-74
2023/06/19 08:35:15;;;;;;;17.83;13.55;;;21.70;99.90;;;;;;5028173;28;20026;-73
2023/06/19 08:37:41;;;;;;;17.20;13.13;;;21.90;99.90;;;;;;5009341;28;20053;-74
2023/06/19 08:40:09;;;;;;;17.75;12.70;;;22.00;99.90;;;;;;4993685;28;20033;-74
2023/06/19 08:42:36;;;;;;;19.02;13.25;;;21.90;99.90;;;;;;5012013;28;20030;-73
2023/06/19 08:45:02;;;;;;;19.77;12.45;;;21.80;99.90;;;;;;5027995;28;20037;-71
2023/06/19 08:47:34;;;;;;;18.83;13.35;;;21.70;99.90;;;;;;5008583;28;20019;-74
2023/06/19 08:50:00;;;;;;;16.55;12.98;;;21.80;99.90;;;;;;4992258;28;20496;-74
2023/06/19 08:52:27;;;;;;;17.60;12.45;;;22.00;99.90;;;;;;5010008;28;20379;-73
2023/06/19 08:54:53;;;;;;;20.85;12.85;;;21.70;99.90;;;;;;5012957;28;20034;-73
2023/06/19 08:57:19;;;;;;;17.75;12.65;;;21.70;99.90;;;;;;5012740;28;20033;-73
2023/06/19 08:59:49;;;;;;;17.50;12.57;;;21.70;99.90;;;;;;5028292;28;20025;-74
2023/06/19 09:02:16;;;;;;;16.65;13.15;;;21.70;99.90;;;;;;5026924;28;20041;-74
2023/06/19 09:04:42;;;;;;;19.38;12.57;;;21.50;99.90;;;;;;5028153;28;20490;-73
2023/06/19 09:07:08;;;;;;;16.20;11.48;;;21.50;99.90;;;;;;5027379;28;20133;-74
2023/06/19 09:09:34;;;;;;;13.75;10.95;;;21.40;99.90;;;;;;5028068;28;20026;-73
2023/06/19 09:12:02;;;;;;;17.02;11.55;;;21.30;99.90;;;;;;5027668;28;20034;-73
2023/06/19 09:14:46;;;;;;;16.77;11.40;;;21.30;99.90;;;;;;5012772;28;20068;-74
2023/06/19 09:17:13;;;;;;;16.20;10.50;;;21.30;99.90;;;;;;5012074;28;20042;-73
2023/06/19 09:19:50;;;;;;;15.23;10.40;;;21.20;99.90;;;;;;5012845;28;20033;-74
2023/06/19 09:22:18;;;;;;;14.23;10.13;;;21.20;99.90;;;;;;5010653;28;20041;-74
2023/06/19 09:24:44;;;;;;;14.65;10.00;;;21.20;99.90;;;;;;5027550;28;20029;-73
2023/06/19 09:27:20;;;;;;;12.93;10.60;;;21.10;99.90;;;;;;5012376;28;20037;-74
2023/06/19 09:29:48;;;;;;;14.75;11.02;;;21.10;99.90;;;;;;5012566;28;20033;-76
2023/06/19 09:32:17;;;;;;;17.23;11.77;;;21.20;99.90;;;;;;5026864;28;20053;-73
2023/06/19 09:34:43;;;;;;;17.55;11.85;;;21.10;99.90;;;;;;5012623;28;20030;-73
2023/06/19 09:37:10;;;;;;;17.23;12.02;;;21.20;99.90;;;;;;5011907;28;20389;-73
2023/06/19 09:39:37;;;;;;;16.83;11.38;;;21.30;99.90;;;;;;4992904;28;20483;-73
2023/06/19 09:42:03;;;;;;;16.13;10.98;;;21.40;99.90;;;;;;5011068;28;20057;-73
2023/06/19 09:44:35;;;;;;;16.90;10.95;;;21.40;99.90;;;;;;5027557;28;20032;-73
2023/06/19 09:47:01;;;;;;;12.60;10.38;;;21.30;99.90;;;;;;5025817;28;20045;-73
2023/06/19 09:49:28;;;;;;;16.85;11.10;;;21.20;99.90;;;;;;4975376;28;20511;-73
2023/06/19 09:51:54;;;;;;;13.63;9.88;;;21.10;99.90;;;;;;5005171;28;20420;-72
2023/06/19 09:54:21;;;;;;;13.65;9.95;;;21.10;99.90;;;;;;5012309;28;20026;-72
2023/06/19 09:56:50;;;;;;;15.93;10.63;;;21.10;99.90;;;;;;5011021;28;20391;-72
2023/06/19 09:59:16;;;;;;;15.05;10.60;;;21.20;99.90;;;;;;5012306;28;20022;-72
2023/06/19 10:01:43;;;;;;;16.63;11.25;;;21.20;99.90;;;;;;5026619;28;20049;-73
2023/06/19 10:04:11;;;;;;;12.68;10.85;;;21.20;99.90;;;;;;5027445;28;20029;-72
2023/06/19 10:06:44;;;;;;;15.40;10.35;;;21.10;99.90;;;;;;5015340;28;20053;-72
2023/06/19 10:09:10;;;;;;;15.80;10.95;;;21.20;99.90;;;;;;5016187;28;20042;-73
2023/06/19 10:11:47;;;;;;;14.93;10.38;;;21.10;99.90;;;;;;5015775;28;20463;-75
2023/06/19 10:14:13;;;;;;;15.98;10.75;;;21.10;99.90;;;;;;5031205;28;20501;-73
2023/06/19 10:16:40;;;;;;;14.15;10.57;;;21.20;99.90;;;;;;5015080;28;20041;-75
2023/06/19 10:19:16;;;;;;;14.75;11.07;;;21.20;99.90;;;;;;5016109;28;20029;-73
2023/06/19 10:21:50;;;;;;;14.85;10.65;;;21.20;99.90;;;;;;5030871;28;20045;-73
2023/06/19 10:24:19;;;;;;;12.68;9.48;;;21.20;99.90;;;;;;5031067;28;20029;-73
2023/06/19 10:27:01;;;;;;;14.05;11.10;;;21.20;99.90;;;;;;5014362;28;20030;-74
2023/06/19 10:29:40;;;;;;;13.35;10.15;;;21.30;99.90;;;;;;5030604;28;20037;-73
2023/06/19 10:32:06;;;;;;;13.55;10.10;;;21.40;99.90;;;;;;5030092;28;20038;-73
2023/06/19 10:34:34;;;;;;;12.80;10.23;;;21.40;99.90;;;;;;5014084;28;20037;-76
2023/06/19 10:37:00;;;;;;;17.25;10.60;;;21.40;99.90;;;;;;5001738;28;20045;-74
2023/06/19 10:39:26;;;;;;;12.90;9.95;;;21.60;99.90;;;;;;5011258;28;20026;-73
2023/06/19 10:41:52;;;;;;;12.88;9.20;;;21.60;99.90;;;;;;5009517;28;20037;-73
2023/06/19 10:44:18;;;;;;;14.20;10.15;;;21.50;99.90;;;;;;5014421;28;20034;-73
2023/06/19 10:46:44;;;;;;;19.55;10.77;;;21.40;99.90;;;;;;5014774;28;20038;-73
2023/06/19 10:49:11;;;;;;;12.02;9.75;;;21.50;99.90;;;;;;4996952;28;20061;-73
2023/06/19 10:51:37;;;;;;;15.10;9.85;;;21.50;99.90;;;;;;5006130;28;20030;-74
2023/06/19 10:54:04;;;;;;;14.77;9.82;;;21.60;99.90;;;;;;5015253;28;20029;-73
2023/06/19 10:56:30;;;;;;;13.13;9.43;;;21.70;99.90;;;;;;5013660;28;20118;-73
2023/06/19 10:59:08;;;;;;;11.25;8.85;;;21.70;99.90;;;;;;5015235;28;20415;-73
2023/06/19 11:01:50;;;;;;;12.77;9.48;;;21.80;99.90;;;;;;5014488;28;20491;-73
2023/06/19 11:04:16;;;;;;;12.48;9.07;;;21.90;99.90;;;;;;5013458;28;20038;-73
2023/06/19 11:06:44;;;;;;;11.38;8.98;;;22.00;99.90;;;;;;5014922;28;20030;-73
2023/06/19 11:09:11;;;;;;;11.07;9.98;;;22.00;99.90;;;;;;5015084;28;20033;-73
2023/06/19 11:11:44;;;;;;;14.55;11.02;;;22.00;99.90;;;;;;5014752;28;20049;-73
2023/06/19 11:14:12;;;;;;;13.40;10.07;;;22.00;99.90;;;;;;5014886;28;20034;-73
2023/06/19 11:16:41;;;;;;;14.55;10.82;;;22.20;99.90;;;;;;5014144;28;20057;-74
2023/06/19 11:19:08;;;;;;;11.30;9.30;;;22.30;99.90;;;;;;5014817;28;20029;-73
2023/06/19 11:21:38;;;;;;;14.57;10.98;;;22.40;99.90;;;;;;5013151;28;20054;-73
2023/06/19 11:24:05;;;;;;;12.10;10.57;;;22.30;99.90;;;;;;5029663;28;20045;-73
2023/06/19 11:26:43;;;;;;;11.55;9.95;;;22.20;99.90;;;;;;5029864;28;20045;-73
2023/06/19 11:29:22;;;;;;;15.57;10.35;;;22.20;99.90;;;;;;5015159;28;20042;-73
2023/06/19 11:31:48;;;;;;;16.02;10.40;;;22.20;99.90;;;;;;5013722;28;20048;-73
2023/06/19 11:34:15;;;;;;;15.00;10.43;;;22.10;99.90;;;;;;5029916;28;20022;-73
2023/06/19 11:36:42;;;;;;;12.75;10.30;;;22.00;99.90;;;;;;5001820;28;20054;-73
2023/06/19 11:39:15;;;;;;;13.40;10.02;;;21.80;99.90;;;;;;4977866;28;20039;-73
2023/06/19 11:41:43;;;;;;;12.10;10.10;;;21.80;99.90;;;;;;4989868;28;20475;-73
2023/06/19 11:44:09;;;;;;;17.92;10.38;;;21.90;99.90;;;;;;5029409;28;20037;-73
2023/06/19 11:46:36;;;;;;;14.32;10.27;;;21.90;99.90;;;;;;5013405;28;20483;-73
2023/06/19 11:49:20;;;;;;;12.75;10.43;;;22.00;99.90;;;;;;5012439;28;20157;-73
2023/06/19 11:51:46;;;;;;;14.23;10.55;;;22.10;99.90;;;;;;5006672;28;20044;-73
2023/06/19 11:54:14;;;;;;;11.75;9.63;;;22.10;99.90;;;;;;5013197;28;20049;-73
2023/06/19 11:56:40;;;;;;;13.20;10.43;;;22.10;99.90;;;;;;5012797;28;20054;-73
2023/06/19 11:59:07;;;;;;;13.27;10.05;;;22.00;99.90;;;;;;5029619;28;20022;-73
2023/06/19 12:01:33;;;;;;;12.32;10.35;;;22.00;99.90;;;;;;5028145;28;20041;-73
2023/06/19 12:04:00;;;;;;;12.18;10.20;;;22.00;99.90;;;;;;5012736;28;20034;-72
2023/06/19 12:06:27;;;;;;;14.13;10.93;;;22.20;99.90;;;;;;5013837;28;20471;-73
2023/06/19 12:08:53;;;;;;;10.63;9.50;;;22.20;99.90;;;;;;5029092;28;20098;-73
2023/06/19 12:11:19;;;;;;;14.32;10.02;;;22.20;99.90;;;;;;5013672;28;20482;-73
2023/06/19 12:13:45;;;;;;;14.07;10.18;;;22.20;99.90;;;;;;5014013;28;20604;-73
2023/06/19 12:16:11;;;;;;;12.75;10.40;;;22.10;99.90;;;;;;5027935;28;20056;-73
2023/06/19 12:18:37;;;;;;;12.55;9.00;;;22.20;99.90;;;;;;5028994;28;20379;-73
2023/06/19 12:21:04;;;;;;;13.50;9.55;;;22.10;99.90;;;;;;5012321;28;20498;-73
2023/06/19 12:23:30;;;;;;;11.50;9.38;;;21.90;99.90;;;;;;5012308;28;20483;-73
2023/06/19 12:25:56;;;;;;;13.57;9.60;;;21.90;99.90;;;;;;4995632;28;20667;-73
2023/06/19 12:28:22;;;;;;;10.40;8.93;;;21.90;99.90;;;;;;5011960;28;20037;-73
2023/06/19 12:30:51;;;;;;;10.88;8.60;;;21.90;99.90;;;;;;5011389;28;20375;-73